Portada
METAR-TAF:

METAR-TAF

Aeroports :

Sandakan, Malàisia

latitud: 05-54N, longitud: 118-04E, altitud: 12 m

Observació

L'informe es va fer fa 25 minuts, a les 13:00 UTC
Vent 3 kt amb direcció variable
Temperatura 28°C
Humitat 84%
Pressió 1008 hPa
Visibilitat 10 km o més
Escasses núvols a una alçada de 1600 ft

METAR: WBKS 141300Z VRB03KT 9999 FEW016 28/25 Q1008

Hora: 21:25 (13:25 UTC)

Pronòstic

L'informe es va fer fa 2 hores i 25 minuts, a les 11:00 UTC
Pronòstic vàlid del 14 a les 12 UTC al 15 a les 12 UTC
Vent 3 kt amb direcció variable
Visibilitat 10 km o més
Escasses núvols a una alçada de 1600 ft
Probabilitat 30% :
Temporalment
l' 15 a les 03 UTC al 15 a les 07 UTC
Visibilitat: 5000 m
Núvols disperses a una alçada de 1400 ft
Escasses núvols a una alçada de 1700 ft, Cumulonimbus.
tempesta, pluja

TAF: WBKS 141100Z 1412/1512 VRB03KT 9999 FEW016 PROB30 TEMPO 1503/1507 5000 TSRA SCT014 FEW017CB

Observacions i pronòstics meteorològics de més de 4000 aeroports (METAR i TAF).

Les estacions disponibles són els punts grocs i vermells al mapa.

Posi el ratolí al punt desitjat per veure el nom de l'estació.

Feu clic per veure les observacions i els pronòstics meteorològics.

Per canviar el mapa: feu clic els botons verds amb una creu de color negre per apropar; al botó verd amb un guió per allunyar la imatge; o en les fletxes verdes per a mapes adjacents.


METAR-TAF: